createdAt,value
2023-01-07T00:00:49.085Z,9.70
2023-01-07T00:03:22.863Z,9.70
2023-01-07T00:06:09.383Z,9.70
2023-01-07T00:08:45.412Z,9.60
2023-01-07T00:11:22.142Z,9.60
2023-01-07T00:13:59.029Z,9.60
2023-01-07T00:16:34.433Z,9.60
2023-01-07T00:19:10.991Z,9.70
2023-01-07T00:21:45.433Z,9.60
2023-01-07T00:24:19.421Z,9.60
2023-01-07T00:26:53.605Z,9.60
2023-01-07T00:29:28.654Z,9.60
2023-01-07T00:32:03.031Z,9.60
2023-01-07T00:34:39.231Z,9.60
2023-01-07T00:37:31.779Z,9.60
2023-01-07T00:40:07.043Z,9.60
2023-01-07T00:42:58.487Z,9.60
2023-01-07T00:45:36.318Z,9.60
2023-01-07T00:48:11.435Z,9.50
2023-01-07T00:50:56.710Z,9.50
2023-01-07T00:53:30.889Z,9.50
2023-01-07T00:56:05.912Z,9.50
2023-01-07T00:58:40.227Z,9.50
2023-01-07T01:01:16.385Z,9.50
2023-01-07T01:03:50.610Z,9.50
2023-01-07T01:06:25.586Z,9.50
2023-01-07T01:08:59.250Z,9.50
2023-01-07T01:11:32.332Z,9.50
2023-01-07T01:14:07.149Z,9.50
2023-01-07T01:16:42.346Z,9.50
2023-01-07T01:19:17.194Z,9.50
2023-01-07T01:21:51.230Z,9.50
2023-01-07T01:24:26.249Z,9.50
2023-01-07T01:27:00.189Z,9.50
2023-01-07T01:29:34.484Z,9.50
2023-01-07T01:32:08.771Z,9.50
2023-01-07T01:34:43.509Z,9.50
2023-01-07T01:37:17.944Z,9.50
2023-01-07T01:39:52.663Z,9.50
2023-01-07T01:42:26.489Z,9.50
2023-01-07T01:45:02.465Z,9.50
2023-01-07T01:47:57.258Z,9.50
2023-01-07T01:50:43.975Z,9.50
2023-01-07T01:53:27.062Z,9.60
2023-01-07T01:56:12.458Z,9.60
2023-01-07T01:58:54.627Z,9.50
2023-01-07T02:01:29.211Z,9.50
2023-01-07T02:04:13.623Z,9.50
2023-01-07T02:07:05.182Z,9.50
2023-01-07T02:09:40.555Z,9.50
2023-01-07T02:12:24.821Z,9.50
2023-01-07T02:15:14.073Z,9.50
2023-01-07T02:18:09.489Z,9.50
2023-01-07T02:20:52.938Z,9.50
2023-01-07T02:24:07.681Z,9.40
2023-01-07T02:27:06.329Z,9.40
2023-01-07T02:30:14.553Z,9.40
2023-01-07T02:32:54.095Z,9.30
2023-01-07T02:35:47.247Z,9.30
2023-01-07T02:38:42.557Z,9.30
2023-01-07T02:41:40.437Z,9.30
2023-01-07T02:44:40.615Z,9.20
2023-01-07T02:47:24.608Z,9.20
2023-01-07T02:50:00.947Z,9.20
2023-01-07T02:52:37.335Z,9.20
2023-01-07T02:55:18.224Z,9.20
2023-01-07T02:58:08.674Z,9.20
2023-01-07T03:01:07.334Z,9.10
2023-01-07T03:04:16.501Z,9.10
2023-01-07T03:07:03.890Z,9.10
2023-01-07T03:09:55.708Z,9.10
2023-01-07T03:12:43.565Z,9.20
2023-01-07T03:15:18.094Z,9.20
2023-01-07T03:18:02.858Z,9.20
2023-01-07T03:20:40.742Z,9.20
2023-01-07T03:23:17.365Z,9.20
2023-01-07T03:25:53.946Z,9.20
2023-01-07T03:28:33.983Z,9.20
2023-01-07T03:31:12.782Z,9.20
2023-01-07T03:34:03.648Z,9.20
2023-01-07T03:36:42.598Z,9.30
2023-01-07T03:39:17.276Z,9.20
2023-01-07T03:42:16.632Z,9.20
2023-01-07T03:44:50.400Z,9.30
2023-01-07T03:47:27.570Z,9.30
2023-01-07T03:50:02.902Z,9.30
2023-01-07T03:52:38.221Z,9.30
2023-01-07T03:55:11.704Z,9.30
2023-01-07T03:57:46.567Z,9.30
2023-01-07T04:00:20.643Z,9.30
2023-01-07T04:03:03.970Z,9.30
2023-01-07T04:05:43.295Z,9.30
2023-01-07T04:08:19.416Z,9.30
2023-01-07T04:10:53.845Z,9.30
2023-01-07T04:13:28.500Z,9.30
2023-01-07T04:16:03.124Z,9.30
2023-01-07T04:18:36.836Z,9.20
2023-01-07T04:21:10.665Z,9.20
2023-01-07T04:23:45.127Z,9.10
2023-01-07T04:26:19.545Z,9.10
2023-01-07T04:28:53.902Z,9.10
2023-01-07T04:31:29.136Z,9.10
2023-01-07T04:34:03.566Z,9.10
2023-01-07T04:36:38.422Z,9.00
2023-01-07T04:39:13.059Z,9.00
2023-01-07T04:41:46.905Z,9.10
2023-01-07T04:44:21.294Z,9.00
2023-01-07T04:46:55.902Z,9.00
2023-01-07T04:49:30.491Z,9.00
2023-01-07T04:52:06.021Z,9.00
2023-01-07T04:54:41.751Z,8.90
2023-01-07T04:57:15.891Z,8.90
2023-01-07T04:59:52.235Z,8.90
2023-01-07T05:02:27.919Z,8.90
2023-01-07T05:05:02.694Z,8.90
2023-01-07T05:07:37.458Z,9.00
2023-01-07T05:10:11.489Z,9.00
2023-01-07T05:12:45.889Z,9.00
2023-01-07T05:15:21.905Z,9.00
2023-01-07T05:17:56.663Z,9.00
2023-01-07T05:20:31.557Z,9.00
2023-01-07T05:23:05.637Z,9.00
2023-01-07T05:25:39.683Z,9.00
2023-01-07T05:28:12.861Z,9.00
2023-01-07T05:30:47.789Z,9.00
2023-01-07T05:33:20.767Z,9.00
2023-01-07T05:35:53.956Z,9.00
2023-01-07T05:38:27.781Z,9.00
2023-01-07T05:41:01.028Z,9.00
2023-01-07T05:43:34.091Z,8.90
2023-01-07T05:46:07.639Z,9.00
2023-01-07T05:48:41.901Z,8.90
2023-01-07T05:51:16.454Z,9.00
2023-01-07T05:53:49.697Z,9.00
2023-01-07T05:56:23.088Z,9.00
2023-01-07T05:58:55.989Z,8.90
2023-01-07T06:01:29.377Z,9.00
2023-01-07T06:04:03.381Z,9.00
2023-01-07T06:06:37.602Z,8.90
2023-01-07T06:09:11.474Z,8.90
2023-01-07T06:11:45.103Z,8.90
2023-01-07T06:14:19.122Z,8.90
2023-01-07T06:16:53.123Z,8.90
2023-01-07T06:19:27.436Z,8.90
2023-01-07T06:22:01.012Z,8.90
2023-01-07T06:24:34.834Z,8.90
2023-01-07T06:27:10.627Z,8.80
2023-01-07T06:29:44.241Z,8.80
2023-01-07T06:32:17.707Z,8.80
2023-01-07T06:34:51.376Z,8.80
2023-01-07T06:37:24.900Z,8.80
2023-01-07T06:39:58.572Z,8.80
2023-01-07T06:42:32.397Z,8.80
2023-01-07T06:45:06.636Z,8.80
2023-01-07T06:47:40.247Z,8.80
2023-01-07T06:50:13.479Z,8.80
2023-01-07T06:52:46.385Z,8.70
2023-01-07T06:55:19.740Z,8.70
2023-01-07T06:57:52.508Z,8.70
2023-01-07T07:00:25.677Z,8.60
2023-01-07T07:02:58.631Z,8.60
2023-01-07T07:05:33.389Z,8.60
2023-01-07T07:08:06.474Z,8.60
2023-01-07T07:10:39.334Z,8.60
2023-01-07T07:13:12.376Z,8.60
2023-01-07T07:15:45.132Z,8.60
2023-01-07T07:18:18.313Z,8.60
2023-01-07T07:20:51.197Z,8.60
2023-01-07T07:23:24.910Z,8.60
2023-01-07T07:25:57.637Z,8.60
2023-01-07T07:28:30.346Z,8.60
2023-01-07T07:31:03.569Z,8.60
2023-01-07T07:33:36.684Z,8.60
2023-01-07T07:36:09.524Z,8.60
2023-01-07T07:38:42.212Z,8.50
2023-01-07T07:41:15.860Z,8.50
2023-01-07T07:43:48.622Z,8.60
2023-01-07T07:46:21.439Z,8.50
2023-01-07T07:48:54.345Z,8.60
2023-01-07T07:51:27.043Z,8.60
2023-01-07T07:53:59.968Z,8.60
2023-01-07T07:56:32.741Z,8.50
2023-01-07T07:59:05.377Z,8.60
2023-01-07T08:01:38.993Z,8.60
2023-01-07T08:04:11.822Z,8.60
2023-01-07T08:06:44.501Z,8.60
2023-01-07T08:09:17.198Z,8.60
2023-01-07T08:11:50.365Z,8.60
2023-01-07T08:14:23.220Z,8.60
2023-01-07T08:16:56.037Z,8.60
2023-01-07T08:19:28.809Z,8.60
2023-01-07T08:22:01.634Z,8.60
2023-01-07T08:24:34.441Z,8.70
2023-01-07T08:27:07.126Z,8.70
2023-01-07T08:29:40.039Z,8.70
2023-01-07T08:32:13.133Z,8.70
2023-01-07T08:34:47.527Z,8.80
2023-01-07T08:37:20.219Z,8.80
2023-01-07T08:39:52.946Z,8.80
2023-01-07T08:42:26.679Z,8.80
2023-01-07T08:44:59.428Z,8.90
2023-01-07T08:47:32.238Z,8.90
2023-01-07T08:50:05.377Z,8.90
2023-01-07T08:52:38.201Z,8.90
2023-01-07T08:55:10.936Z,8.90
2023-01-07T08:57:51.576Z,9.00
2023-01-07T09:00:49.326Z,9.00
2023-01-07T09:03:22.110Z,9.00
2023-01-07T09:05:55.002Z,9.00
2023-01-07T09:08:27.820Z,9.10
2023-01-07T09:11:00.617Z,9.20
2023-01-07T09:13:33.421Z,9.20
2023-01-07T09:16:06.835Z,9.10
2023-01-07T09:18:39.719Z,9.10
2023-01-07T09:21:12.432Z,9.10
2023-01-07T09:23:45.373Z,9.10
2023-01-07T09:26:18.334Z,9.10
2023-01-07T09:28:51.078Z,9.10
2023-01-07T09:31:24.208Z,9.10
2023-01-07T09:33:57.068Z,9.20
2023-01-07T09:36:29.849Z,9.20
2023-01-07T09:39:02.866Z,9.20
2023-01-07T09:41:48.693Z,9.20
2023-01-07T09:44:36.498Z,9.20
2023-01-07T09:47:09.959Z,9.20
2023-01-07T09:49:46.777Z,9.30
2023-01-07T09:52:44.773Z,9.30
2023-01-07T09:55:35.880Z,9.30
2023-01-07T09:58:16.010Z,9.20
2023-01-07T10:01:05.790Z,9.30
2023-01-07T10:04:14.081Z,9.20
2023-01-07T10:06:49.825Z,9.20
2023-01-07T10:09:45.857Z,9.20
2023-01-07T10:12:24.753Z,9.20
2023-01-07T10:15:14.383Z,9.30
2023-01-07T10:18:10.476Z,9.30
2023-01-07T10:20:51.816Z,9.30
2023-01-07T10:23:32.112Z,9.30
2023-01-07T10:26:13.528Z,9.30
2023-01-07T10:28:55.650Z,9.30
2023-01-07T10:31:31.790Z,9.30
2023-01-07T10:34:14.437Z,9.40
2023-01-07T10:37:05.701Z,9.40
2023-01-07T10:39:57.892Z,9.40
2023-01-07T10:42:36.052Z,9.40
2023-01-07T10:45:30.541Z,9.30
2023-01-07T10:48:25.167Z,9.40
2023-01-07T10:51:07.758Z,9.40
2023-01-07T10:53:55.922Z,9.40
2023-01-07T10:56:54.591Z,9.50
2023-01-07T10:59:27.955Z,9.50
2023-01-07T11:02:04.464Z,9.50
2023-01-07T11:04:40.603Z,9.50
2023-01-07T11:07:27.393Z,9.50
2023-01-07T11:10:02.480Z,9.60
2023-01-07T11:12:46.743Z,9.60
2023-01-07T11:15:36.115Z,9.70
2023-01-07T11:18:30.069Z,9.70
2023-01-07T11:21:02.837Z,9.80
2023-01-07T11:23:36.786Z,9.80
2023-01-07T11:26:28.362Z,9.80
2023-01-07T11:29:21.515Z,9.90
2023-01-07T11:31:59.570Z,10.00
2023-01-07T11:34:37.203Z,10.00
2023-01-07T11:37:50.530Z,10.10
2023-01-07T11:40:29.116Z,10.10
2023-01-07T11:43:21.969Z,10.10
2023-01-07T11:46:19.264Z,10.10
2023-01-07T11:49:01.087Z,10.10
2023-01-07T11:51:41.246Z,10.20
2023-01-07T11:54:25.835Z,10.20
2023-01-07T11:57:23.055Z,10.20
2023-01-07T12:00:15.263Z,10.30
2023-01-07T12:03:13.722Z,10.30
2023-01-07T12:05:46.919Z,10.30
2023-01-07T12:08:26.184Z,10.30
2023-01-07T12:11:07.463Z,10.40
2023-01-07T12:13:55.382Z,10.40
2023-01-07T12:16:33.267Z,10.50
2023-01-07T12:19:24.003Z,10.50
2023-01-07T12:22:07.567Z,10.50
2023-01-07T12:24:55.512Z,10.60
2023-01-07T12:27:50.526Z,10.60
2023-01-07T12:30:26.271Z,10.60
2023-01-07T12:33:37.501Z,10.60
2023-01-07T12:36:34.968Z,10.70
2023-01-07T12:39:26.034Z,10.60
2023-01-07T12:42:24.476Z,10.60
2023-01-07T12:45:03.952Z,10.60
2023-01-07T12:47:40.803Z,10.60
2023-01-07T12:50:24.478Z,10.70
2023-01-07T12:53:11.806Z,10.70
2023-01-07T12:55:54.503Z,10.80
2023-01-07T12:58:50.578Z,10.80
2023-01-07T13:01:26.935Z,10.90
2023-01-07T13:04:05.735Z,10.90
2023-01-07T13:06:48.667Z,10.90
2023-01-07T13:09:28.337Z,10.90
2023-01-07T13:12:43.293Z,10.90
2023-01-07T13:15:29.760Z,11.00
2023-01-07T13:18:29.197Z,11.00
2023-01-07T13:21:09.191Z,11.00
2023-01-07T13:24:03.195Z,10.90
2023-01-07T13:27:11.572Z,10.90
2023-01-07T13:30:10.935Z,10.90
2023-01-07T13:33:12.289Z,10.90
2023-01-07T13:36:18.822Z,10.90
2023-01-07T13:39:13.778Z,10.90
2023-01-07T13:41:52.567Z,11.10
2023-01-07T13:44:43.666Z,11.10
2023-01-07T13:47:22.011Z,11.10
2023-01-07T13:49:57.453Z,11.20
2023-01-07T13:52:33.595Z,11.20
2023-01-07T13:55:34.081Z,11.20
2023-01-07T13:58:29.277Z,11.20
2023-01-07T14:01:02.359Z,11.10
2023-01-07T14:03:37.823Z,11.10
2023-01-07T14:06:19.948Z,11.00
2023-01-07T14:09:13.442Z,11.00
2023-01-07T14:12:01.118Z,10.90
2023-01-07T14:14:59.464Z,10.80
2023-01-07T14:18:03.934Z,10.80
2023-01-07T14:21:05.771Z,10.80
2023-01-07T14:23:50.834Z,10.80
2023-01-07T14:26:39.436Z,10.80
2023-01-07T14:29:31.004Z,10.80
2023-01-07T14:32:26.983Z,10.90
2023-01-07T14:35:11.951Z,10.90
2023-01-07T14:37:48.379Z,10.90
2023-01-07T14:40:27.172Z,10.80
2023-01-07T14:43:01.527Z,10.80
2023-01-07T14:45:37.358Z,10.80
2023-01-07T14:48:10.369Z,10.80
2023-01-07T14:50:50.832Z,10.80
2023-01-07T14:53:38.517Z,10.70
2023-01-07T14:56:42.144Z,10.70
2023-01-07T15:00:03.830Z,10.70
2023-01-07T15:03:28.225Z,10.70
2023-01-07T15:06:20.897Z,10.60
2023-01-07T15:09:52.674Z,10.60
2023-01-07T15:12:48.907Z,10.50
2023-01-07T15:15:55.014Z,10.50
2023-01-07T15:18:31.533Z,10.40
2023-01-07T15:21:28.613Z,10.40
2023-01-07T15:24:23.174Z,10.30
2023-01-07T15:27:13.171Z,10.20
2023-01-07T15:29:55.405Z,10.20
2023-01-07T15:32:38.744Z,10.20
2023-01-07T15:35:21.034Z,10.10
2023-01-07T15:37:54.135Z,10.00
2023-01-07T15:40:27.827Z,10.00
2023-01-07T15:43:03.261Z,9.90
2023-01-07T15:45:36.994Z,9.90
2023-01-07T15:48:13.128Z,9.80
2023-01-07T15:50:46.677Z,9.80
2023-01-07T15:53:23.420Z,9.80
2023-01-07T15:56:05.368Z,9.70
2023-01-07T15:58:46.034Z,9.70
2023-01-07T16:01:21.799Z,9.60
2023-01-07T16:03:56.818Z,9.50
2023-01-07T16:06:33.221Z,9.50
2023-01-07T16:09:19.003Z,9.40
2023-01-07T16:11:52.410Z,9.40
2023-01-07T16:14:26.794Z,9.40
2023-01-07T16:17:16.024Z,9.30
2023-01-07T16:19:48.784Z,9.30
2023-01-07T16:22:24.090Z,9.30
2023-01-07T16:24:57.191Z,9.20
2023-01-07T16:27:30.715Z,9.20
2023-01-07T16:30:05.339Z,9.20
2023-01-07T16:32:38.359Z,9.20
2023-01-07T16:35:21.743Z,9.20
2023-01-07T16:37:54.801Z,9.10
2023-01-07T16:40:34.978Z,9.10
2023-01-07T16:43:33.264Z,9.10
2023-01-07T16:46:34.230Z,9.10
2023-01-07T16:49:25.967Z,9.10
2023-01-07T16:52:16.880Z,9.10
2023-01-07T16:54:50.040Z,9.10
2023-01-07T16:57:30.473Z,9.10
2023-01-07T17:00:05.959Z,9.20
2023-01-07T17:02:57.071Z,9.20
2023-01-07T17:05:31.894Z,9.20
2023-01-07T17:08:08.637Z,9.30
2023-01-07T17:10:44.002Z,9.30
2023-01-07T17:13:22.694Z,9.30
2023-01-07T17:16:23.809Z,9.40
2023-01-07T17:18:58.667Z,9.50
2023-01-07T17:21:43.523Z,9.50
2023-01-07T17:24:28.508Z,9.60
2023-01-07T17:27:04.254Z,9.60
2023-01-07T17:29:39.275Z,9.60
2023-01-07T17:32:14.069Z,9.70
2023-01-07T17:34:46.905Z,9.70
2023-01-07T17:37:19.598Z,9.80
2023-01-07T17:39:52.332Z,9.80
2023-01-07T17:42:50.870Z,9.80
2023-01-07T17:45:23.566Z,9.90
2023-01-07T17:47:57.277Z,9.90
2023-01-07T17:50:36.654Z,9.90
2023-01-07T17:53:25.889Z,9.90
2023-01-07T17:56:00.859Z,9.90
2023-01-07T17:58:35.732Z,9.90
2023-01-07T18:01:11.770Z,9.90
2023-01-07T18:03:47.431Z,9.90
2023-01-07T18:06:24.675Z,9.90
2023-01-07T18:08:57.620Z,9.90
2023-01-07T18:11:53.822Z,9.90
2023-01-07T18:14:26.619Z,9.80
2023-01-07T18:16:59.566Z,9.80
2023-01-07T18:19:32.383Z,9.80
2023-01-07T18:22:05.173Z,9.80
2023-01-07T18:24:37.971Z,9.80
2023-01-07T18:27:15.831Z,9.80
2023-01-07T18:29:48.960Z,9.80
2023-01-07T18:32:21.745Z,9.70
2023-01-07T18:34:54.498Z,9.70
2023-01-07T18:37:27.274Z,9.70
2023-01-07T18:40:02.329Z,9.70
2023-01-07T18:42:35.830Z,9.70
2023-01-07T18:45:09.192Z,9.70
2023-01-07T18:47:42.936Z,9.60
2023-01-07T18:50:16.223Z,9.60
2023-01-07T18:52:49.043Z,9.60
2023-01-07T18:55:22.223Z,9.60
2023-01-07T18:57:55.433Z,9.60
2023-01-07T19:00:30.347Z,9.60
2023-01-07T19:03:03.378Z,9.70
2023-01-07T19:05:39.852Z,9.80
2023-01-07T19:08:12.685Z,9.80
2023-01-07T19:10:45.501Z,9.80
2023-01-07T19:13:18.409Z,9.80
2023-01-07T19:15:51.218Z,10.00
2023-01-07T19:18:24.136Z,10.00
2023-01-07T19:21:00.721Z,10.00
2023-01-07T19:23:33.937Z,10.00
2023-01-07T19:26:08.858Z,10.10
2023-01-07T19:28:41.611Z,10.10
2023-01-07T19:31:14.847Z,10.10
2023-01-07T19:33:47.995Z,10.10
2023-01-07T19:36:20.818Z,10.10
2023-01-07T19:38:53.655Z,10.10
2023-01-07T19:41:26.818Z,10.10
2023-01-07T19:44:00.879Z,10.00
2023-01-07T19:46:34.778Z,10.00
2023-01-07T19:49:08.681Z,10.00
2023-01-07T19:51:43.333Z,10.00
2023-01-07T19:54:16.462Z,10.00
2023-01-07T19:56:49.323Z,10.00
2023-01-07T19:59:23.017Z,10.00
2023-01-07T20:01:56.280Z,10.00
2023-01-07T20:04:29.356Z,10.00
2023-01-07T20:07:02.246Z,10.00
2023-01-07T20:09:35.610Z,10.00
2023-01-07T20:12:08.950Z,10.00
2023-01-07T20:14:42.721Z,10.00
2023-01-07T20:17:15.501Z,10.00
2023-01-07T20:19:49.183Z,10.00
2023-01-07T20:22:22.662Z,10.00
2023-01-07T20:24:55.735Z,9.90
2023-01-07T20:27:29.170Z,9.90
2023-01-07T20:30:03.431Z,9.80
2023-01-07T20:32:36.692Z,9.70
2023-01-07T20:35:10.009Z,9.60
2023-01-07T20:37:43.563Z,9.50
2023-01-07T20:40:16.307Z,9.40
2023-01-07T20:42:49.066Z,9.40
2023-01-07T20:45:22.264Z,9.30
2023-01-07T20:47:55.775Z,9.30
2023-01-07T20:50:30.584Z,9.20
2023-01-07T20:53:04.272Z,9.20
2023-01-07T20:55:37.104Z,9.20
2023-01-07T20:58:10.146Z,9.10
2023-01-07T21:00:42.958Z,9.10
2023-01-07T21:03:16.334Z,9.10
2023-01-07T21:05:49.716Z,9.10
2023-01-07T21:08:23.165Z,9.10
2023-01-07T21:10:56.505Z,9.00
2023-01-07T21:13:30.203Z,9.00
2023-01-07T21:16:05.105Z,9.00
2023-01-07T21:18:38.909Z,9.00
2023-01-07T21:21:15.829Z,8.90
2023-01-07T21:23:49.625Z,8.90
2023-01-07T21:26:25.101Z,8.90
2023-01-07T21:28:59.211Z,8.90
2023-01-07T21:31:33.863Z,8.90
2023-01-07T21:34:07.339Z,9.00
2023-01-07T21:36:41.490Z,9.00
2023-01-07T21:39:14.593Z,9.00
2023-01-07T21:41:47.819Z,9.00
2023-01-07T21:44:21.082Z,9.00
2023-01-07T21:46:53.932Z,9.00
2023-01-07T21:49:27.317Z,9.00
2023-01-07T21:52:00.702Z,9.00
2023-01-07T21:54:34.444Z,9.10
2023-01-07T21:57:07.329Z,9.10
2023-01-07T21:59:40.081Z,9.10
2023-01-07T22:02:13.783Z,9.10
2023-01-07T22:04:47.477Z,9.10
2023-01-07T22:07:20.240Z,9.10
2023-01-07T22:09:52.918Z,9.10
2023-01-07T22:12:25.744Z,9.10
2023-01-07T22:14:58.446Z,9.20
2023-01-07T22:17:31.163Z,9.20
2023-01-07T22:20:04.203Z,9.20
2023-01-07T22:22:37.129Z,9.20
2023-01-07T22:25:10.011Z,9.20
2023-01-07T22:27:42.854Z,9.20
2023-01-07T22:30:18.741Z,9.30
2023-01-07T22:32:51.467Z,9.30
2023-01-07T22:35:25.329Z,9.30
2023-01-07T22:38:01.921Z,9.30
2023-01-07T22:40:38.119Z,9.30
2023-01-07T22:43:14.947Z,9.30
2023-01-07T22:46:06.739Z,9.30
2023-01-07T22:48:40.102Z,9.30
2023-01-07T22:51:20.009Z,9.30
2023-01-07T22:53:55.690Z,9.30
2023-01-07T22:56:29.482Z,9.30
2023-01-07T22:59:02.758Z,9.30
2023-01-07T23:01:37.817Z,9.30
2023-01-07T23:04:11.877Z,9.30
2023-01-07T23:06:45.696Z,9.30
2023-01-07T23:09:18.965Z,9.30
2023-01-07T23:11:55.060Z,9.40
2023-01-07T23:14:30.283Z,9.40
2023-01-07T23:17:03.720Z,9.40
2023-01-07T23:19:37.067Z,9.40
2023-01-07T23:22:10.778Z,9.40
2023-01-07T23:24:44.585Z,9.40
2023-01-07T23:27:17.670Z,9.40
2023-01-07T23:29:50.904Z,9.40
2023-01-07T23:32:24.997Z,9.40
2023-01-07T23:34:59.177Z,9.40
2023-01-07T23:37:33.788Z,9.40
2023-01-07T23:40:09.380Z,9.30
2023-01-07T23:42:49.261Z,9.30
2023-01-07T23:45:23.462Z,9.30
2023-01-07T23:47:57.024Z,9.30
2023-01-07T23:50:30.287Z,9.30
2023-01-07T23:53:03.970Z,9.30
2023-01-07T23:55:39.470Z,9.20
2023-01-07T23:58:13.239Z,9.20
